Time;durP1;ratioP1;P1;durP2;ratioP2;P2;SDS_P1;SDS_P2;PMS_P1;PMS_P2;Temp;Humidity;BMP_temperature;BMP_pressure;BME280_temperature;BME280_humidity;BME280_pressure;Samples;Min_cycle;Max_cycle;Signal;HPM_P1;HPM_P2
2021/09/29 00:01:23;;;;;;;6.88;4.28;;;20.60;72.60;;;;;;5117124;28;20373;-70
2021/09/29 00:03:48;;;;;;;6.47;4.45;;;20.50;72.30;;;;;;5116780;28;20052;-70
2021/09/29 00:06:14;;;;;;;7.18;4.72;;;20.50;72.10;;;;;;5116566;28;20454;-70
2021/09/29 00:08:40;;;;;;;5.95;4.70;;;20.50;72.40;;;;;;5116409;28;20027;-70
2021/09/29 00:11:06;;;;;;;6.65;4.88;;;20.50;72.40;;;;;;5116278;28;20058;-70
2021/09/29 00:13:32;;;;;;;6.80;4.93;;;20.50;72.70;;;;;;5116749;28;20015;-70
2021/09/29 00:15:57;;;;;;;5.68;4.80;;;20.40;72.80;;;;;;5116704;28;20034;-70
2021/09/29 00:18:24;;;;;;;6.30;4.50;;;20.50;73.20;;;;;;5116682;28;20043;-70
2021/09/29 00:20:51;;;;;;;7.53;4.70;;;20.50;72.80;;;;;;5116715;28;20384;-70
2021/09/29 00:23:17;;;;;;;9.40;4.70;;;20.50;73.00;;;;;;5116609;28;20094;-70
2021/09/29 00:25:42;;;;;;;12.52;4.30;;;20.40;72.80;;;;;;5116439;28;20024;-70
2021/09/29 00:28:08;;;;;;;6.93;4.50;;;20.40;73.10;;;;;;5116274;28;20045;-70
2021/09/29 00:30:50;;;;;;;6.10;3.97;;;20.40;73.10;;;;;;5116283;28;20047;-70
2021/09/29 00:33:20;;;;;;;6.78;4.20;;;20.40;72.60;;;;;;5116409;27;20449;-71
2021/09/29 00:35:46;;;;;;;10.82;4.10;;;20.40;72.30;;;;;;5115968;28;20032;-69
2021/09/29 00:38:12;;;;;;;8.13;4.50;;;20.40;72.00;;;;;;5116330;28;20024;-70
2021/09/29 00:40:38;;;;;;;6.97;4.03;;;20.40;72.10;;;;;;5116259;28;20479;-70
2021/09/29 00:43:04;;;;;;;6.90;4.22;;;20.40;72.00;;;;;;5115720;28;20064;-70
2021/09/29 00:45:29;;;;;;;11.93;4.38;;;20.40;72.00;;;;;;5116282;28;20050;-70
2021/09/29 00:47:55;;;;;;;6.03;4.20;;;20.30;72.20;;;;;;5115962;28;20391;-70
2021/09/29 00:50:21;;;;;;;12.43;4.30;;;20.30;72.50;;;;;;5115637;28;20471;-70
2021/09/29 00:52:46;;;;;;;8.77;4.53;;;20.30;72.20;;;;;;5115994;28;20371;-70
2021/09/29 00:55:15;;;;;;;9.77;4.05;;;20.30;72.30;;;;;;5115985;28;20023;-70
2021/09/29 00:57:41;;;;;;;6.32;4.90;;;20.20;72.00;;;;;;5114746;28;20557;-70
2021/09/29 01:00:09;;;;;;;10.68;4.50;;;20.20;72.40;;;;;;5111664;28;20023;-70
2021/09/29 01:02:36;;;;;;;9.27;4.20;;;20.20;72.30;;;;;;5112575;28;20035;-70
2021/09/29 01:05:04;;;;;;;8.88;4.82;;;20.10;72.30;;;;;;5114406;28;20019;-70
2021/09/29 01:07:54;;;;;;;9.20;4.72;;;20.20;72.40;;;;;;5115742;28;20051;-70
2021/09/29 01:10:42;;;;;;;9.07;4.25;;;20.10;72.40;;;;;;5115367;28;20127;-71
2021/09/29 01:13:19;;;;;;;8.18;4.43;;;20.10;72.50;;;;;;5115315;28;20038;-70
2021/09/29 01:15:49;;;;;;;8.95;4.85;;;20.00;72.80;;;;;;5115721;28;20464;-70
2021/09/29 01:18:19;;;;;;;8.55;5.20;;;20.00;73.10;;;;;;5115366;28;20046;-70
2021/09/29 01:20:53;;;;;;;12.02;5.30;;;20.00;73.10;;;;;;5115178;28;20020;-69
2021/09/29 01:23:50;;;;;;;8.60;5.43;;;20.00;72.80;;;;;;5115541;27;20023;-69
2021/09/29 01:26:18;;;;;;;6.50;4.97;;;20.00;73.50;;;;;;5111277;28;20161;-70
2021/09/29 01:28:46;;;;;;;8.25;5.32;;;20.00;73.30;;;;;;5114936;28;20046;-70
2021/09/29 01:31:12;;;;;;;8.43;5.18;;;20.00;73.30;;;;;;5114864;28;20391;-70
2021/09/29 01:33:39;;;;;;;7.43;4.97;;;19.90;73.30;;;;;;5114593;28;20024;-70
2021/09/29 01:36:06;;;;;;;7.25;5.20;;;19.90;73.70;;;;;;5114759;28;20028;-70
2021/09/29 01:38:34;;;;;;;7.45;4.70;;;19.90;73.10;;;;;;5114880;28;20024;-70
2021/09/29 01:41:00;;;;;;;9.15;5.13;;;19.90;73.20;;;;;;5115137;28;20059;-70
2021/09/29 01:43:29;;;;;;;8.52;4.78;;;19.90;73.10;;;;;;5114456;28;20055;-70
2021/09/29 01:45:55;;;;;;;5.28;4.32;;;19.90;73.10;;;;;;5114715;28;20111;-70
2021/09/29 01:48:21;;;;;;;6.70;4.55;;;19.80;73.30;;;;;;5114834;28;20087;-70
2021/09/29 01:50:50;;;;;;;8.73;4.80;;;19.80;73.60;;;;;;5114428;28;20046;-70
2021/09/29 01:53:18;;;;;;;11.60;4.95;;;19.80;73.70;;;;;;5114570;28;20026;-71
2021/09/29 01:55:44;;;;;;;10.48;5.10;;;19.80;73.60;;;;;;5114275;28;20027;-73
2021/09/29 01:58:10;;;;;;;10.20;4.78;;;19.80;73.40;;;;;;5114664;28;20031;-70
2021/09/29 02:00:39;;;;;;;7.47;4.50;;;19.80;73.30;;;;;;5114901;28;20139;-70
2021/09/29 02:03:05;;;;;;;10.55;4.50;;;19.80;73.10;;;;;;5114384;28;20011;-70
2021/09/29 02:05:34;;;;;;;9.20;4.85;;;19.80;73.10;;;;;;5114366;28;20025;-70
2021/09/29 02:08:01;;;;;;;11.45;4.60;;;19.80;73.40;;;;;;5114501;28;20023;-70
2021/09/29 02:10:27;;;;;;;5.07;4.45;;;19.80;73.20;;;;;;5114070;28;20400;-70
2021/09/29 02:12:53;;;;;;;8.43;4.57;;;19.80;73.00;;;;;;5114523;28;20085;-70
2021/09/29 02:15:20;;;;;;;9.48;4.25;;;19.80;72.90;;;;;;5114976;28;20028;-70
2021/09/29 02:17:46;;;;;;;14.73;5.00;;;19.80;72.90;;;;;;5114224;28;20495;-70
2021/09/29 02:20:12;;;;;;;7.97;4.00;;;19.80;72.90;;;;;;5114469;28;20114;-72
2021/09/29 02:22:39;;;;;;;10.23;4.53;;;19.80;72.90;;;;;;5114383;28;20020;-69
2021/09/29 02:25:06;;;;;;;5.00;4.10;;;19.80;72.90;;;;;;5114340;28;20085;-70
2021/09/29 02:27:32;;;;;;;6.07;4.10;;;19.70;72.80;;;;;;5113965;28;20023;-70
2021/09/29 02:29:58;;;;;;;8.77;4.43;;;19.70;72.80;;;;;;5114203;28;20039;-70
2021/09/29 02:32:23;;;;;;;7.10;4.10;;;19.70;73.00;;;;;;5114132;28;20034;-70
2021/09/29 02:34:49;;;;;;;6.30;3.70;;;19.70;73.20;;;;;;5114103;28;20028;-70
2021/09/29 02:37:15;;;;;;;6.55;3.88;;;19.60;73.10;;;;;;5113971;28;20077;-70
2021/09/29 02:39:40;;;;;;;8.52;4.25;;;19.60;73.30;;;;;;5113930;28;20100;-70
2021/09/29 02:42:07;;;;;;;5.40;4.30;;;19.60;73.40;;;;;;5113930;28;20020;-70
2021/09/29 02:44:34;;;;;;;9.13;4.10;;;19.60;73.20;;;;;;5114072;28;20442;-71
2021/09/29 02:47:00;;;;;;;8.02;4.18;;;19.60;73.20;;;;;;5113791;28;20023;-71
2021/09/29 02:49:26;;;;;;;6.82;3.90;;;19.60;73.40;;;;;;5113651;28;20027;-70
2021/09/29 02:51:52;;;;;;;6.32;4.45;;;19.60;73.40;;;;;;5113972;28;20038;-70
2021/09/29 02:54:18;;;;;;;9.80;3.60;;;19.60;73.40;;;;;;5113955;28;20020;-70
2021/09/29 02:56:43;;;;;;;9.35;4.30;;;19.60;73.30;;;;;;5113748;28;20080;-72
2021/09/29 02:59:10;;;;;;;9.02;4.45;;;19.60;73.40;;;;;;5113412;28;20019;-70
2021/09/29 03:01:42;;;;;;;7.80;4.18;;;19.60;73.40;;;;;;5113385;28;20028;-70
2021/09/29 03:04:07;;;;;;;;;;;19.60;73.50;;;;;;5113988;28;20030;-70
2021/09/29 03:06:33;;;;;;;8.32;4.65;;;19.60;74.30;;;;;;5113653;28;19904;-70
2021/09/29 03:08:59;;;;;;;9.50;4.72;;;19.60;74.10;;;;;;5113419;28;20027;-70
2021/09/29 03:11:25;;;;;;;9.88;4.57;;;19.60;73.90;;;;;;5113705;28;20532;-70
2021/09/29 03:13:51;;;;;;;7.35;4.50;;;19.60;73.90;;;;;;5113514;28;20032;-70
2021/09/29 03:16:17;;;;;;;6.78;4.57;;;19.60;73.90;;;;;;5113774;28;20102;-70
2021/09/29 03:18:44;;;;;;;6.60;4.15;;;19.50;73.60;;;;;;5113251;28;20029;-70
2021/09/29 03:21:10;;;;;;;7.55;4.35;;;19.50;73.50;;;;;;5113713;28;20035;-70
2021/09/29 03:23:36;;;;;;;10.35;4.40;;;19.60;73.60;;;;;;5113325;28;20020;-70
2021/09/29 03:26:02;;;;;;;10.75;4.45;;;19.60;73.70;;;;;;5113285;28;20051;-69
2021/09/29 03:28:28;;;;;;;7.70;4.30;;;19.60;73.70;;;;;;5113299;28;20020;-70
2021/09/29 03:30:53;;;;;;;7.50;4.35;;;19.60;73.80;;;;;;5113398;28;20383;-70
2021/09/29 03:33:19;;;;;;;9.00;4.20;;;19.50;73.80;;;;;;5113428;28;20053;-70
2021/09/29 03:35:45;;;;;;;8.40;4.57;;;19.50;73.80;;;;;;5113527;28;20032;-70
2021/09/29 03:38:10;;;;;;;12.80;4.78;;;19.50;73.80;;;;;;5113287;28;20425;-70
2021/09/29 03:40:36;;;;;;;8.45;4.90;;;19.60;74.00;;;;;;5113517;28;20379;-70
2021/09/29 03:43:02;;;;;;;7.43;4.68;;;19.50;74.00;;;;;;5113227;28;20099;-70
2021/09/29 03:45:28;;;;;;;8.25;4.93;;;19.50;74.10;;;;;;5113061;28;20110;-70
2021/09/29 03:47:54;;;;;;;8.35;4.25;;;19.50;74.30;;;;;;5113459;28;20026;-73
2021/09/29 03:50:20;;;;;;;13.18;4.07;;;19.50;74.50;;;;;;5113285;28;20027;-70
2021/09/29 03:52:46;;;;;;;5.85;4.20;;;19.50;74.20;;;;;;5113048;28;20019;-70
2021/09/29 03:55:12;;;;;;;7.47;4.03;;;19.50;74.10;;;;;;5113361;28;20080;-70
2021/09/29 03:57:39;;;;;;;12.30;4.45;;;19.50;74.30;;;;;;5111675;28;20024;-70
2021/09/29 04:00:10;;;;;;;9.73;3.92;;;19.50;74.00;;;;;;5113096;28;20471;-70
2021/09/29 04:02:37;;;;;;;10.07;4.68;;;19.50;74.00;;;;;;5112750;28;20495;-70
2021/09/29 04:05:03;;;;;;;7.60;3.97;;;19.50;73.70;;;;;;5113500;28;20069;-70
2021/09/29 04:07:29;;;;;;;13.75;5.35;;;19.50;73.50;;;;;;5113150;28;20032;-72
2021/09/29 04:09:54;;;;;;;11.15;4.38;;;19.50;73.50;;;;;;5112299;28;20109;-70
2021/09/29 04:12:21;;;;;;;13.07;4.60;;;19.50;73.50;;;;;;5112983;28;20027;-69
2021/09/29 04:14:51;;;;;;;14.95;4.30;;;19.50;73.70;;;;;;5112981;28;20072;-70
2021/09/29 04:17:16;;;;;;;10.25;4.60;;;19.40;73.80;;;;;;5113587;28;20027;-70
2021/09/29 04:19:42;;;;;;;14.27;5.47;;;19.40;74.00;;;;;;5116963;28;20050;-70
2021/09/29 04:22:11;;;;;;;13.10;4.57;;;19.40;74.00;;;;;;5116783;28;20177;-70
2021/09/29 04:24:44;;;;;;;7.57;4.80;;;19.40;74.00;;;;;;5115392;28;20395;-70
2021/09/29 04:27:11;;;;;;;10.43;4.80;;;19.40;74.00;;;;;;5116416;28;20038;-70
2021/09/29 04:29:37;;;;;;;6.88;4.40;;;19.40;74.10;;;;;;5116158;28;20015;-70
2021/09/29 04:32:03;;;;;;;10.82;4.72;;;19.40;74.40;;;;;;5116308;28;20027;-70
2021/09/29 04:34:29;;;;;;;14.43;5.00;;;19.40;74.50;;;;;;5116487;28;20065;-70
2021/09/29 04:36:55;;;;;;;9.68;4.93;;;19.40;74.30;;;;;;5116296;28;20031;-70
2021/09/29 04:39:21;;;;;;;8.65;5.00;;;19.40;74.40;;;;;;5116117;28;20051;-72
2021/09/29 04:41:47;;;;;;;10.55;4.82;;;19.40;75.00;;;;;;5115693;28;20495;-70
2021/09/29 04:44:12;;;;;;;9.35;4.88;;;19.40;74.80;;;;;;5115978;28;20073;-70
2021/09/29 04:46:38;;;;;;;10.90;4.78;;;19.40;74.90;;;;;;5115943;28;20399;-70
2021/09/29 04:49:04;;;;;;;9.73;4.82;;;19.40;74.80;;;;;;5116078;28;20066;-70
2021/09/29 04:51:29;;;;;;;10.75;4.65;;;19.40;74.90;;;;;;5116056;28;20031;-70
2021/09/29 04:53:55;;;;;;;9.63;4.63;;;19.40;75.10;;;;;;5115864;28;20023;-70
2021/09/29 04:56:21;;;;;;;11.82;5.78;;;19.40;75.00;;;;;;5115930;28;20027;-70
2021/09/29 04:58:46;;;;;;;9.20;4.70;;;19.40;75.40;;;;;;5115733;28;20160;-70
2021/09/29 05:01:19;;;;;;;8.32;4.60;;;19.40;75.40;;;;;;5115497;28;20016;-70
2021/09/29 05:03:44;;;;;;;16.85;6.05;;;19.40;75.10;;;;;;5116040;28;20118;-70
2021/09/29 05:06:10;;;;;;;10.02;4.88;;;19.40;74.90;;;;;;5115741;28;20096;-70
2021/09/29 05:08:37;;;;;;;11.38;4.78;;;19.40;75.00;;;;;;5115219;28;20035;-71
2021/09/29 05:11:16;;;;;;;11.77;4.47;;;19.40;75.00;;;;;;5115491;28;20040;-70
2021/09/29 05:13:42;;;;;;;9.55;4.63;;;19.40;75.10;;;;;;5115773;28;20035;-70
2021/09/29 05:16:07;;;;;;;8.77;4.68;;;19.40;75.00;;;;;;5115532;28;20023;-70
2021/09/29 05:18:33;;;;;;;6.53;4.10;;;19.40;75.00;;;;;;5115516;28;20475;-70
2021/09/29 05:20:58;;;;;;;5.57;4.47;;;19.40;75.30;;;;;;5115274;28;20359;-69
2021/09/29 05:23:25;;;;;;;7.82;4.55;;;19.40;75.10;;;;;;5115459;28;20076;-71
2021/09/29 05:25:51;;;;;;;8.48;4.50;;;19.40;75.10;;;;;;5115466;28;20028;-70
2021/09/29 05:28:22;;;;;;;11.15;4.10;;;19.40;75.70;;;;;;5115619;28;20455;-70
2021/09/29 05:30:47;;;;;;;10.10;4.45;;;19.40;75.50;;;;;;5115419;28;20110;-71
2021/09/29 05:33:13;;;;;;;6.25;4.65;;;19.30;75.60;;;;;;5115165;28;20432;-70
2021/09/29 05:35:39;;;;;;;7.50;4.95;;;19.30;75.60;;;;;;5115061;28;20027;-70
2021/09/29 05:38:05;;;;;;;9.82;5.22;;;19.40;75.80;;;;;;5115082;28;20102;-71
2021/09/29 05:40:30;;;;;;;9.75;4.97;;;19.40;75.90;;;;;;5114963;28;20019;-71
2021/09/29 05:42:56;;;;;;;6.63;4.72;;;19.40;75.80;;;;;;5115023;28;20023;-70
2021/09/29 05:45:22;;;;;;;6.13;4.95;;;19.40;75.70;;;;;;5115073;28;20031;-71
2021/09/29 05:47:47;;;;;;;8.27;5.00;;;19.40;76.20;;;;;;5114955;28;20069;-71
2021/09/29 05:50:14;;;;;;;8.27;4.85;;;19.40;76.10;;;;;;5114807;28;20480;-72
2021/09/29 05:52:39;;;;;;;5.47;4.55;;;19.40;75.80;;;;;;5114762;28;20030;-71
2021/09/29 05:55:06;;;;;;;9.77;4.90;;;19.40;76.00;;;;;;5114832;28;20090;-71
2021/09/29 05:57:31;;;;;;;6.90;4.38;;;19.50;76.20;;;;;;5115206;28;20023;-71
2021/09/29 05:59:57;;;;;;;9.05;4.45;;;19.50;76.10;;;;;;5114527;28;20547;-71
2021/09/29 06:02:23;;;;;;;8.25;5.20;;;19.50;75.90;;;;;;5114862;28;20115;-71
2021/09/29 06:04:49;;;;;;;9.38;4.75;;;19.50;75.80;;;;;;5114495;28;20016;-72
2021/09/29 06:07:16;;;;;;;16.20;4.63;;;19.60;76.00;;;;;;5114760;28;20387;-71
2021/09/29 06:09:44;;;;;;;8.77;4.25;;;19.60;76.10;;;;;;5114083;28;20042;-72
2021/09/29 06:12:11;;;;;;;11.65;3.92;;;19.60;76.00;;;;;;5114327;28;20035;-69
2021/09/29 06:14:40;;;;;;;8.63;4.50;;;19.70;75.80;;;;;;5113246;28;20015;-74
2021/09/29 06:17:22;;;;;;;10.77;4.45;;;19.70;75.80;;;;;;5114302;28;20467;-68
2021/09/29 06:19:48;;;;;;;7.55;4.20;;;19.70;75.90;;;;;;5114174;28;20055;-67
2021/09/29 06:22:14;;;;;;;8.85;4.38;;;19.70;76.20;;;;;;5114647;28;20031;-69
2021/09/29 06:24:40;;;;;;;8.05;4.43;;;19.80;76.10;;;;;;5114416;28;20028;-65
2021/09/29 06:27:06;;;;;;;10.02;4.65;;;19.80;76.10;;;;;;5114179;28;20383;-66
2021/09/29 06:29:31;;;;;;;18.65;4.90;;;19.80;76.00;;;;;;5114372;28;20023;-66
2021/09/29 06:31:57;;;;;;;17.55;5.43;;;19.80;76.20;;;;;;5114489;28;20476;-66
2021/09/29 06:34:23;;;;;;;16.10;5.38;;;19.80;76.20;;;;;;5113881;28;20030;-66
2021/09/29 06:36:49;;;;;;;10.25;4.90;;;19.90;76.10;;;;;;5114238;28;20027;-66
2021/09/29 06:39:15;;;;;;;12.93;5.00;;;19.90;75.90;;;;;;5113990;28;20020;-74
2021/09/29 06:41:41;;;;;;;12.05;4.72;;;19.90;76.00;;;;;;5112232;28;20016;-68
2021/09/29 06:44:08;;;;;;;9.52;4.55;;;20.00;76.00;;;;;;5111797;28;20059;-76
2021/09/29 06:46:34;;;;;;;9.68;4.88;;;20.00;76.70;;;;;;5112793;28;20016;-76
2021/09/29 06:49:00;;;;;;;10.27;4.90;;;20.00;76.10;;;;;;5113301;28;20077;-67
2021/09/29 06:51:25;;;;;;;19.85;5.70;;;20.10;76.30;;;;;;5113075;28;20493;-70
2021/09/29 06:53:51;;;;;;;11.15;5.32;;;20.10;76.50;;;;;;5113724;28;20046;-70
2021/09/29 06:56:17;;;;;;;8.45;4.80;;;20.20;76.50;;;;;;5112780;28;20030;-70
2021/09/29 06:58:44;;;;;;;14.07;5.03;;;20.20;76.50;;;;;;5113005;28;20015;-70
2021/09/29 07:01:10;;;;;;;15.25;5.13;;;20.30;76.40;;;;;;5113518;28;20440;-70
2021/09/29 07:03:35;;;;;;;11.77;5.25;;;20.30;76.40;;;;;;5113549;27;20024;-70
2021/09/29 07:06:01;;;;;;;8.43;4.80;;;20.40;76.30;;;;;;5113783;28;20033;-69
2021/09/29 07:08:27;;;;;;;9.73;5.20;;;20.40;76.30;;;;;;5113692;28;20107;-71
2021/09/29 07:10:52;;;;;;;14.48;5.63;;;20.40;76.20;;;;;;5113503;28;20083;-75
2021/09/29 07:13:19;;;;;;;9.77;4.95;;;20.50;76.30;;;;;;5113742;28;20027;-69
2021/09/29 07:15:44;;;;;;;12.85;4.75;;;20.50;76.10;;;;;;5113162;28;20185;-71
2021/09/29 07:18:11;;;;;;;15.70;4.60;;;20.60;75.90;;;;;;5113507;28;20076;-71
2021/09/29 07:20:37;;;;;;;8.32;4.40;;;20.60;75.70;;;;;;5113626;28;20119;-71
2021/09/29 07:23:07;;;;;;;8.85;4.63;;;20.70;75.80;;;;;;5113682;28;20084;-76
2021/09/29 07:25:32;;;;;;;9.95;4.40;;;20.70;75.70;;;;;;5113312;28;20030;-71
2021/09/29 07:27:58;;;;;;;8.13;4.10;;;20.80;75.20;;;;;;5113564;28;20042;-71
2021/09/29 07:30:25;;;;;;;5.95;4.20;;;20.80;74.50;;;;;;5113364;28;20122;-72
2021/09/29 07:32:52;;;;;;;8.43;4.00;;;20.90;73.40;;;;;;5113552;28;20020;-71
2021/09/29 07:35:18;;;;;;;6.95;3.70;;;20.90;72.50;;;;;;5113516;28;20039;-71
2021/09/29 07:37:45;;;;;;;7.07;4.03;;;20.90;71.70;;;;;;5113640;28;20016;-71
2021/09/29 07:40:11;;;;;;;6.15;3.97;;;21.00;71.40;;;;;;5113575;28;20027;-71
2021/09/29 07:42:37;;;;;;;5.47;3.70;;;21.00;71.10;;;;;;5113450;28;20019;-72
2021/09/29 07:45:06;;;;;;;8.57;4.10;;;21.00;70.70;;;;;;5113333;28;20023;-72
2021/09/29 07:47:32;;;;;;;5.82;3.55;;;21.10;70.50;;;;;;5113571;28;20035;-73
2021/09/29 07:49:57;;;;;;;8.35;3.85;;;21.10;70.50;;;;;;5113387;28;20437;-71
2021/09/29 07:52:23;;;;;;;6.30;3.70;;;21.10;70.60;;;;;;5114168;28;20023;-75
2021/09/29 07:54:50;;;;;;;6.53;3.72;;;21.20;70.40;;;;;;5117248;28;20539;-75
2021/09/29 07:57:15;;;;;;;8.20;4.07;;;21.20;70.20;;;;;;5117018;28;20498;-71
2021/09/29 07:59:41;;;;;;;5.40;3.75;;;21.30;69.90;;;;;;5117137;28;20036;-71
2021/09/29 08:02:07;;;;;;;5.78;4.00;;;21.30;69.70;;;;;;5117228;28;20032;-71
2021/09/29 08:04:33;;;;;;;10.02;3.67;;;21.40;69.90;;;;;;5117249;28;20023;-71
2021/09/29 08:06:59;;;;;;;6.47;3.88;;;21.40;69.70;;;;;;5116915;28;20032;-71
2021/09/29 08:09:25;;;;;;;5.97;3.88;;;21.50;69.40;;;;;;5115416;28;20101;-74
2021/09/29 08:11:51;;;;;;;4.47;3.60;;;21.50;68.30;;;;;;5116696;28;20172;-72
2021/09/29 08:14:18;;;;;;;10.75;3.70;;;21.60;67.70;;;;;;5116968;28;20056;-71
2021/09/29 08:16:44;;;;;;;5.90;3.60;;;21.60;67.50;;;;;;5116679;28;20038;-72
2021/09/29 08:19:11;;;;;;;4.25;3.85;;;21.60;67.50;;;;;;5116740;28;20058;-71
2021/09/29 08:21:37;;;;;;;5.38;3.63;;;21.70;67.70;;;;;;5117064;28;20106;-71
2021/09/29 08:24:35;;;;;;;8.20;3.30;;;21.80;68.00;;;;;;5116666;28;20028;-73
2021/09/29 08:29:35;;;;;;;4.30;3.45;;;21.80;67.60;;;;;;5116527;28;20027;-75
2021/09/29 08:40:29;;;;;;;3.85;3.40;;;22.00;67.60;;;;;;5116586;28;20063;-74
2021/09/29 08:45:48;;;;;;;6.40;3.90;;;22.00;67.10;;;;;;5061047;28;20079;-71
2021/09/29 08:53:47;;;;;;;7.43;3.95;;;22.20;67.30;;;;;;5116241;28;20041;-73
2021/09/29 09:18:11;;;;;;;7.75;3.90;;;22.70;65.50;;;;;;5114830;27;20039;-71
2021/09/29 09:20:41;;;;;;;4.60;3.40;;;22.70;65.60;;;;;;5114790;28;20020;-71
2021/09/29 09:23:07;;;;;;;4.95;3.80;;;22.80;65.40;;;;;;5114644;28;20023;-72
2021/09/29 09:25:41;;;;;;;5.32;4.20;;;22.80;65.30;;;;;;5115673;28;20030;-72
2021/09/29 09:28:10;;;;;;;5.68;3.67;;;22.90;65.60;;;;;;5114844;28;20031;-72
2021/09/29 09:30:38;;;;;;;6.90;3.85;;;22.90;65.50;;;;;;5115362;28;20051;-71
2021/09/29 09:33:04;;;;;;;8.93;4.22;;;22.90;65.80;;;;;;5112878;28;20732;-72
2021/09/29 09:35:46;;;;;;;4.70;3.78;;;22.90;65.90;;;;;;5114279;28;20020;-71
2021/09/29 09:38:26;;;;;;;5.05;3.25;;;23.00;66.20;;;;;;5114550;28;20023;-72
2021/09/29 09:40:54;;;;;;;7.13;3.58;;;23.00;65.40;;;;;;5113847;28;20436;-72
2021/09/29 09:43:23;;;;;;;4.88;3.08;;;23.00;65.00;;;;;;5114682;28;20023;-71
2021/09/29 09:45:49;;;;;;;15.20;3.60;;;23.00;64.80;;;;;;5114834;28;20015;-71
2021/09/29 09:48:26;;;;;;;10.77;3.17;;;23.10;65.50;;;;;;5113945;28;20034;-71
2021/09/29 09:51:04;;;;;;;6.65;3.35;;;23.10;64.70;;;;;;5114365;28;20039;-71
2021/09/29 09:53:31;;;;;;;6.70;3.25;;;23.10;64.30;;;;;;5114685;28;20388;-71
2021/09/29 09:55:57;;;;;;;4.63;3.42;;;23.20;63.70;;;;;;5113260;28;20503;-71
2021/09/29 09:58:23;;;;;;;3.72;3.20;;;23.10;63.50;;;;;;5113789;28;20031;-75
2021/09/29 10:00:57;;;;;;;4.05;3.35;;;23.20;63.50;;;;;;5114215;28;20023;-71
2021/09/29 10:03:27;;;;;;;4.05;2.90;;;23.20;63.10;;;;;;5114230;28;20019;-72
2021/09/29 10:05:53;;;;;;;7.05;3.38;;;23.20;62.30;;;;;;5112832;28;20020;-73
2021/09/29 10:08:27;;;;;;;8.15;3.03;;;23.20;62.00;;;;;;5112354;28;20020;-72
2021/09/29 10:11:10;;;;;;;3.85;2.92;;;23.30;61.90;;;;;;5113052;28;20047;-72
2021/09/29 10:27:54;;;;;;;6.20;3.65;;;23.50;61.40;;;;;;5114497;28;20069;-71
2021/09/29 10:30:40;;;;;;;6.78;3.58;;;23.60;61.10;;;;;;5114046;28;20027;-71
2021/09/29 10:33:08;;;;;;;9.63;3.38;;;23.70;60.20;;;;;;5114095;28;20036;-70
2021/09/29 10:35:43;;;;;;;4.97;3.80;;;23.70;59.90;;;;;;5113757;28;20024;-71
2021/09/29 11:30:23;;;;;;;5.95;3.50;;;24.50;58.60;;;;;;5117489;28;20118;-69
2021/09/29 12:11:10;;;;;;;4.35;3.35;;;25.00;55.70;;;;;;5116543;28;20060;-68
2021/09/29 12:13:56;;;;;;;7.30;3.83;;;24.90;54.90;;;;;;5116451;28;20379;-68
2021/09/29 12:16:32;;;;;;;4.82;3.63;;;24.90;54.00;;;;;;5116331;28;20023;-67
2021/09/29 12:21:57;;;;;;;5.82;3.60;;;24.90;55.50;;;;;;5116427;28;20055;-68
2021/09/29 12:24:31;;;;;;;6.55;3.60;;;24.90;56.00;;;;;;5116367;28;20107;-68
2021/09/29 12:26:59;;;;;;;5.47;3.67;;;24.90;55.50;;;;;;5115954;28;20012;-68
2021/09/29 12:38:04;;;;;;;5.30;3.10;;;25.00;55.70;;;;;;5095836;28;20035;-70
2021/09/29 12:40:35;;;;;;;5.90;3.70;;;25.00;53.40;;;;;;5116264;27;20023;-70
2021/09/29 12:43:10;;;;;;;4.30;3.63;;;25.00;53.70;;;;;;5116597;28;20110;-70
2021/09/29 12:45:38;;;;;;;4.80;3.60;;;25.00;54.60;;;;;;5116435;28;20020;-69
2021/09/29 12:48:07;;;;;;;4.35;3.80;;;25.00;54.60;;;;;;5116258;28;20046;-70
2021/09/29 12:55:45;;;;;;;5.18;2.97;;;25.00;52.90;;;;;;5116075;28;20468;-71
2021/09/29 12:58:11;;;;;;;7.65;3.72;;;25.00;53.20;;;;;;5115666;28;20038;-69
2021/09/29 13:00:37;;;;;;;5.43;3.78;;;25.00;54.00;;;;;;5115896;28;20028;-69
2021/09/29 13:03:05;;;;;;;4.78;3.40;;;25.00;54.00;;;;;;5115623;28;20065;-70
2021/09/29 13:05:31;;;;;;;9.48;3.75;;;25.00;53.60;;;;;;5115762;28;20038;-69
2021/09/29 13:07:57;;;;;;;4.18;3.42;;;25.00;54.20;;;;;;5113576;28;20495;-70
2021/09/29 13:10:22;;;;;;;5.55;3.70;;;25.00;55.10;;;;;;5113613;28;20043;-69
2021/09/29 13:12:51;;;;;;;5.53;4.32;;;25.00;54.90;;;;;;5117961;27;20028;-69
2021/09/29 13:15:20;;;;;;;6.43;4.20;;;25.00;54.70;;;;;;5115624;28;20023;-69
2021/09/29 13:17:49;;;;;;;5.82;3.78;;;25.10;55.00;;;;;;5115185;28;20031;-69
2021/09/29 13:20:19;;;;;;;7.18;4.10;;;25.10;55.60;;;;;;5114500;28;20473;-72
2021/09/29 13:22:49;;;;;;;5.60;4.00;;;25.20;55.80;;;;;;5115343;28;20016;-70
2021/09/29 13:38:20;;;;;;;4.18;3.58;;;25.30;54.50;;;;;;5115130;28;20451;-74
2021/09/29 13:40:46;;;;;;;4.47;3.63;;;25.30;54.60;;;;;;5114822;28;20023;-70
2021/09/29 13:43:12;;;;;;;6.35;3.55;;;25.30;54.10;;;;;;5114410;28;20452;-70
2021/09/29 13:45:38;;;;;;;4.80;3.55;;;25.20;53.70;;;;;;5113845;28;20115;-69
2021/09/29 13:48:04;;;;;;;5.60;3.75;;;25.30;53.80;;;;;;5114713;28;20023;-75
2021/09/29 13:50:30;;;;;;;4.55;3.97;;;25.20;54.10;;;;;;5113510;28;20119;-70
2021/09/29 13:52:58;;;;;;;7.60;3.70;;;25.20;53.60;;;;;;5114355;28;20491;-70
2021/09/29 13:55:26;;;;;;;3.85;3.45;;;25.20;53.70;;;;;;5114957;28;20086;-73
2021/09/29 13:57:59;;;;;;;6.35;3.92;;;25.20;53.80;;;;;;5114239;28;20097;-70
2021/09/29 14:00:46;;;;;;;5.90;3.70;;;25.20;51.20;;;;;;5113933;28;20023;-70
2021/09/29 14:30:26;;;;;;;6.72;3.78;;;25.40;54.80;;;;;;5114271;28;20073;-69
2021/09/29 14:35:21;;;;;;;10.95;4.00;;;25.40;55.20;;;;;;5114169;28;20085;-70
2021/09/29 14:37:48;;;;;;;6.43;3.83;;;25.40;55.00;;;;;;5114162;28;20028;-70
2021/09/29 14:40:14;;;;;;;4.32;3.50;;;25.40;54.30;;;;;;5113926;28;20081;-72
2021/09/29 14:42:39;;;;;;;5.38;3.85;;;25.40;54.40;;;;;;5114042;28;20016;-73
2021/09/29 14:45:06;;;;;;;8.48;4.40;;;25.40;55.30;;;;;;5113827;28;20395;-71
2021/09/29 14:47:31;;;;;;;8.57;4.40;;;25.40;55.60;;;;;;5113981;28;20080;-70
2021/09/29 14:49:57;;;;;;;5.05;3.75;;;25.40;55.80;;;;;;5113620;28;20039;-70
2021/09/29 14:52:23;;;;;;;5.55;3.90;;;25.40;56.10;;;;;;5114014;28;20051;-70
2021/09/29 14:54:48;;;;;;;7.25;3.50;;;25.40;56.00;;;;;;5114072;28;20118;-69
2021/09/29 14:57:14;;;;;;;5.43;3.72;;;25.40;56.40;;;;;;5113867;28;20076;-69
2021/09/29 14:59:41;;;;;;;7.60;3.80;;;25.40;56.50;;;;;;5113632;28;20519;-69
2021/09/29 15:02:08;;;;;;;5.97;3.50;;;25.40;56.70;;;;;;5113198;28;20464;-69
2021/09/29 15:04:34;;;;;;;6.18;3.72;;;25.40;57.10;;;;;;5113739;28;20036;-69
2021/09/29 15:07:00;;;;;;;8.10;3.85;;;25.40;56.60;;;;;;5113853;28;20016;-69
2021/09/29 15:09:25;;;;;;;7.88;3.80;;;25.40;56.50;;;;;;5113370;28;20155;-73
2021/09/29 15:11:52;;;;;;;8.50;3.60;;;25.40;56.40;;;;;;5113582;28;20055;-73
2021/09/29 15:14:27;;;;;;;9.38;3.80;;;25.40;56.70;;;;;;5112614;28;20035;-69
2021/09/29 15:16:59;;;;;;;5.68;3.22;;;25.40;56.90;;;;;;5113753;28;20023;-68
2021/09/29 15:19:32;;;;;;;6.13;3.87;;;25.40;57.10;;;;;;5113809;28;20438;-69
2021/09/29 15:48:55;;;;;;;9.82;4.00;;;25.20;58.10;;;;;;5112656;28;20034;-69
2021/09/29 15:51:25;;;;;;;;;;;25.20;58.20;;;;;;5113413;28;20097;-69
2021/09/29 15:54:12;;;;;;;5.45;3.70;;;25.10;58.30;;;;;;5112921;28;20276;-69
2021/09/29 16:23:22;;;;;;;7.50;4.25;;;25.00;63.30;;;;;;5113186;28;20067;-70
2021/09/29 16:33:49;;;;;;;7.70;4.43;;;24.90;62.90;;;;;;5116473;28;20072;-71
2021/09/29 16:36:16;;;;;;;9.05;4.25;;;24.90;63.90;;;;;;5115596;28;20067;-72
2021/09/29 16:38:44;;;;;;;4.70;4.28;;;24.80;63.40;;;;;;5115920;28;20101;-72
2021/09/29 16:41:14;;;;;;;7.40;4.68;;;24.80;63.80;;;;;;5115916;28;20068;-70
2021/09/29 16:43:40;;;;;;;8.20;4.50;;;24.70;64.40;;;;;;5115799;28;20051;-71
2021/09/29 16:46:06;;;;;;;6.63;4.00;;;24.70;65.60;;;;;;5114715;28;20077;-70
2021/09/29 16:48:33;;;;;;;8.68;4.38;;;24.70;65.80;;;;;;5115674;28;20028;-69
2021/09/29 16:53:50;;;;;;;8.40;4.15;;;24.60;65.90;;;;;;5116055;28;20024;-70
2021/09/29 16:56:16;;;;;;;8.85;4.90;;;24.50;66.60;;;;;;5115205;28;20036;-69
2021/09/29 16:59:00;;;;;;;10.63;5.32;;;24.50;66.50;;;;;;5115082;27;20576;-73
2021/09/29 17:01:30;;;;;;;9.23;5.30;;;24.50;67.60;;;;;;5115433;28;20031;-71
2021/09/29 17:03:56;;;;;;;9.38;4.82;;;24.50;66.00;;;;;;5114609;28;20069;-70
2021/09/29 17:06:24;;;;;;;8.60;4.93;;;24.40;67.50;;;;;;5115686;28;20056;-74
2021/09/29 17:08:50;;;;;;;7.22;4.22;;;24.30;68.10;;;;;;5115581;28;20420;-71
2021/09/29 17:11:16;;;;;;;12.30;4.32;;;24.30;68.90;;;;;;5113367;28;20079;-71
2021/09/29 17:13:43;;;;;;;5.20;4.50;;;24.30;69.00;;;;;;5115217;28;20062;-73
2021/09/29 17:16:24;;;;;;;7.43;4.85;;;24.30;69.40;;;;;;5113838;28;20023;-71
2021/09/29 17:18:53;;;;;;;6.33;4.63;;;24.20;70.30;;;;;;5114276;28;20020;-70